Mason City Municipal Airport Mason City US
ICAO: KMCW
IATA: MCW
Category: Medium
Scheduled Services: No

Elevation: 1213 ft
TransAlt. 18000 ft.

Airport Communications:
ASOS:120.3
MINNEAPOLIS CNTR:127.3
FORT DODGE RDO:122.6
CTAF/UNICOM:123

KMCW Zoom In..

If you have problems with the map follow the link
https://www.worldairports.se/pages/airport.php?
ICAO=KMCW

Runways:

(A) RW 12 length 5502 ft width 150 ft
---- / hdg 120

(B) RW 18 length 6501 ft width 150 ft
---- / hdg 175

(C) RW 30 length 5502 ft width 150 ft
---- / hdg 300

(D) RW 36 length 6501 ft width 150 ft
ILS 109.50 / hdg 355

Location; KMCW
Day. 27 / Time. 05.53 Zulu
* Altimeter: 29.93
* Temperature: -03° c. -26.6°f.
* Wind from: 030° Speed 05 kn.
Dewpoint: -04° c.
Visibility: 1/2 Statute Miles.
Conditions: Freezing fog.

KMCW 270553Z AUTO 03005KT 1/2SM FZFG VV002 M03/M04 A2993 RMK AO2 SLP145 I1000 I6005 T10281039 11022 21028 410171056 53000


Wind From 030°
Speed 05 kn.

 
 
jpsmedia worldairports.se 2020   terms of use